Seaside Park, New Jersey
Current Conditions -  °F | °C
As of 10:15 AM on Friday 31 Oct 2014 (Local Time) from KMJX Reporting Station
Overcast Overcast  
Wind Chill:   Ceiling: 4900
Heat Index:   Visibility: 10mi
Dew Point:   Wind: 3mph
Humidity: 76%   Direction: 360°N
Pressure: 29.99"   Gusts: NA
Location:  39.93°N, 74.07°W
Report Text: KMJX 311415Z AUTO 36003KT 10SM SCT036 OVC049 08/04 A2999 RMK AO1
Loading
Personal Weather Stations






























Interactive Weather Map
Tropical Storm Tracking
New forecast layout! Learn more

10-Day Weather Forecast

Advertisements
Track Severe Weather on mobile